Time,TemperatureF,DewpointF,PressureIn,WindDirection,WindDirectionDegrees,WindSpeedMPH,WindSpeedGustMPH,Humidity,HourlyPrecipIn,Conditions,Clouds,dailyrainin,SoftwareType,DateUTC
2013-08-06 00:00:00,50.1,44.8,29.72,WNW,293,6.0,10.0,82,0.00,CLR,,0.00,WeatherDisplay:10.37,2013-08-05 23:00:00,
2013-08-06 00:10:00,49.8,44.5,29.72,WNW,295,7.0,11.0,82,0.00,CLR,,0.00,WeatherDisplay:10.37,2013-08-05 23:10:00,
2013-08-06 00:20:00,49.6,44.7,29.73,WNW,292,7.0,10.0,83,0.00,CLR,,0.00,WeatherDisplay:10.37,2013-08-05 23:20:00,
2013-08-06 00:30:00,49.4,44.4,29.73,WNW,289,5.0,9.0,83,0.00,CLR,,0.00,WeatherDisplay:10.37,2013-08-05 23:30:00,
2013-08-06 00:40:00,49.2,44.2,29.73,West,275,6.0,9.0,83,0.00,CLR,,0.00,WeatherDisplay:10.37,2013-08-05 23:40:00,
2013-08-06 00:50:00,48.7,44.1,29.73,West,276,3.0,6.0,84,0.00,CLR,,0.00,WeatherDisplay:10.37,2013-08-05 23:50:00,
2013-08-06 01:00:00,48.8,44.5,29.73,WNW,283,3.0,8.0,85,0.00,CLR,,0.00,WeatherDisplay:10.37,2013-08-06 00:00:00,
2013-08-06 01:10:00,48.4,44.1,29.73,West,281,5.0,8.0,85,0.00,CLR,,0.00,WeatherDisplay:10.37,2013-08-06 00:10:00,
2013-08-06 01:20:00,48.1,43.8,29.74,West,275,5.0,7.0,85,0.00,CLR,,0.00,WeatherDisplay:10.37,2013-08-06 00:20:00,
2013-08-06 01:30:00,48.6,44.6,29.74,WNW,282,6.0,9.0,86,0.00,CLR,,0.00,WeatherDisplay:10.37,2013-08-06 00:30:00,
2013-08-06 01:50:00,48.4,44.7,29.74,WNW,283,6.0,10.0,87,0.00,CLR,,0.00,WeatherDisplay:10.37,2013-08-06 00:50:00,
2013-08-06 02:10:00,48.0,44.3,29.74,WNW,295,8.0,14.0,87,0.00,CLR,,0.00,WeatherDisplay:10.37,2013-08-06 01:10:00,
2013-08-06 02:20:00,48.0,44.3,29.74,WNW,294,8.0,12.0,87,0.00,CLR,,0.00,WeatherDisplay:10.37,2013-08-06 01:20:00,
2013-08-06 02:30:00,47.8,44.2,29.74,WNW,293,9.0,12.0,87,0.00,CLR,,0.00,WeatherDisplay:10.37,2013-08-06 01:30:00,
2013-08-06 02:40:00,47.5,43.8,29.75,WNW,297,5.0,9.0,87,0.00,CLR,,0.00,WeatherDisplay:10.37,2013-08-06 01:40:00,
2013-08-06 02:50:00,46.6,42.9,29.75,WNW,282,2.0,7.0,87,0.00,CLR,,0.00,WeatherDisplay:10.37,2013-08-06 01:50:00,
2013-08-06 03:00:00,44.8,40.8,29.75,WSW,252,3.0,4.0,86,0.00,CLR,,0.00,WeatherDisplay:10.37,2013-08-06 02:00:00,
2013-08-06 03:10:00,43.0,39.4,29.75,SW,230,2.0,6.0,87,0.00,CLR,,0.00,WeatherDisplay:10.37,2013-08-06 02:10:00,
2013-08-06 03:20:00,42.4,38.8,29.75,West,262,3.0,5.0,87,0.00,CLR,,0.00,WeatherDisplay:10.37,2013-08-06 02:20:00,
2013-08-06 03:30:00,41.6,38.3,29.75,West,266,2.0,5.0,88,0.00,CLR,,0.00,WeatherDisplay:10.37,2013-08-06 02:30:00,
2013-08-06 03:40:00,41.8,38.8,29.75,WSW,244,1.0,6.0,89,0.00,CLR,,0.00,WeatherDisplay:10.37,2013-08-06 02:40:00,
2013-08-06 03:50:00,41.9,38.6,29.75,West,277,3.0,5.0,88,0.00,CLR,,0.00,WeatherDisplay:10.37,2013-08-06 02:50:00,
2013-08-06 04:00:00,41.5,38.5,29.75,West,262,2.0,6.0,89,0.00,CLR,,0.00,WeatherDisplay:10.37,2013-08-06 03:00:00,
2013-08-06 04:10:00,40.8,37.8,29.76,WNW,282,3.0,5.0,89,0.00,CLR,,0.00,WeatherDisplay:10.37,2013-08-06 03:10:00,
2013-08-06 04:20:00,40.6,37.9,29.76,West,281,3.0,5.0,90,0.00,CLR,,0.00,WeatherDisplay:10.37,2013-08-06 03:20:00,
2013-08-06 04:30:00,40.6,37.9,29.76,West,278,2.0,6.0,90,0.00,CLR,,0.00,WeatherDisplay:10.37,2013-08-06 03:30:00,
2013-08-06 04:40:00,39.8,37.1,29.76,West,263,3.0,5.0,90,0.00,CLR,,0.00,WeatherDisplay:10.37,2013-08-06 03:40:00,
2013-08-06 04:50:00,39.4,36.7,29.76,West,270,5.0,7.0,90,0.00,CLR,,0.00,WeatherDisplay:10.37,2013-08-06 03:50:00,
2013-08-06 05:00:00,39.2,36.5,29.77,West,279,3.0,4.0,90,0.00,CLR,,0.00,WeatherDisplay:10.37,2013-08-06 04:00:00,
2013-08-06 05:10:00,39.4,36.8,29.77,West,273,2.0,6.0,90,0.00,CLR,,0.00,WeatherDisplay:10.37,2013-08-06 04:10:00,
2013-08-06 05:20:00,40.3,37.9,29.77,WNW,284,2.0,6.0,91,0.00,CLR,,0.00,WeatherDisplay:10.37,2013-08-06 04:20:00,
2013-08-06 05:30:00,39.6,37.2,29.77,WNW,283,5.0,6.0,91,0.00,CLR,,0.00,WeatherDisplay:10.37,2013-08-06 04:30:00,
2013-08-06 05:40:00,39.4,37.0,29.77,West,278,3.0,8.0,91,0.00,CLR,,0.00,WeatherDisplay:10.37,2013-08-06 04:40:00,
2013-08-06 05:50:00,39.0,36.6,29.77,West,270,2.0,5.0,91,0.00,CLR,,0.00,WeatherDisplay:10.37,2013-08-06 04:50:00,
2013-08-06 06:00:00,39.0,36.6,29.77,West,270,2.0,4.0,91,0.00,CLR,,0.00,WeatherDisplay:10.37,2013-08-06 05:00:00,
2013-08-06 06:10:00,38.8,36.4,29.78,West,271,1.0,4.0,91,0.00,CLR,,0.00,WeatherDisplay:10.37,2013-08-06 05:10:00,
2013-08-06 06:20:00,39.4,37.2,29.78,WNW,290,1.0,4.0,92,0.00,CLR,,0.00,WeatherDisplay:10.37,2013-08-06 05:20:00,
2013-08-06 06:30:00,39.9,37.8,29.78,WNW,285,1.0,5.0,92,0.00,CLR,,0.00,WeatherDisplay:10.37,2013-08-06 05:30:00,
2013-08-06 06:40:00,41.7,39.8,29.78,West,270,0.0,2.0,93,0.00,CLR,,0.00,WeatherDisplay:10.37,2013-08-06 05:40:00,
2013-08-06 06:50:00,47.8,46.7,29.78,West,270,0.0,1.0,96,0.00,CLR,,0.00,WeatherDisplay:10.37,2013-08-06 05:50:00,
2013-08-06 07:00:00,51.4,50.3,29.78,West,270,1.0,2.0,96,0.00,CLR,,0.00,WeatherDisplay:10.37,2013-08-06 06:00:00,
2013-08-06 07:10:00,54.3,53.2,29.78,West,270,0.0,2.0,96,0.00,CLR,,0.00,WeatherDisplay:10.37,2013-08-06 06:10:00,
2013-08-06 07:20:00,57.3,53.2,29.78,NW,322,2.0,5.0,86,0.00,CLR,,0.00,WeatherDisplay:10.37,2013-08-06 06:20:00,
2013-08-06 07:30:00,59.4,53.2,29.79,West,281,1.0,5.0,80,0.00,CLR,,0.00,WeatherDisplay:10.37,2013-08-06 06:30:00,
2013-08-06 07:40:00,61.1,53.1,29.79,West,267,2.0,6.0,75,0.00,CLR,,0.00,WeatherDisplay:10.37,2013-08-06 06:40:00,
2013-08-06 07:50:00,62.1,49.4,29.79,SW,229,3.0,8.0,63,0.00,CLR,,0.00,WeatherDisplay:10.37,2013-08-06 06:50:00,
2013-08-06 08:00:00,62.3,47.3,29.79,SW,233,2.0,9.0,58,0.00,CLR,,0.00,WeatherDisplay:10.37,2013-08-06 07:00:00,
2013-08-06 08:10:00,64.0,48.0,29.79,WNW,287,5.0,6.0,56,0.00,CLR,,0.00,WeatherDisplay:10.37,2013-08-06 07:10:00,
2013-08-06 08:20:00,64.8,47.2,29.79,West,274,3.0,15.0,53,0.00,CLR,,0.00,WeatherDisplay:10.37,2013-08-06 07:20:00,
2013-08-06 08:30:00,66.9,48.2,29.79,WSW,242,5.0,8.0,51,0.00,CLR,,0.00,WeatherDisplay:10.37,2013-08-06 07:30:00,
2013-08-06 08:40:00,65.9,45.1,29.79,WNW,283,8.0,12.0,47,0.00,CLR,,0.00,WeatherDisplay:10.37,2013-08-06 07:40:00,
2013-08-06 08:50:00,63.4,44.9,29.79,West,272,3.0,7.0,51,0.00,CLR,,0.00,WeatherDisplay:10.37,2013-08-06 07:50:00,
2013-08-06 09:00:00,63.3,44.9,29.80,West,260,5.0,12.0,51,0.00,CLR,,0.00,WeatherDisplay:10.37,2013-08-06 08:00:00,
2013-08-06 09:10:00,61.5,43.2,29.80,WSW,245,5.0,12.0,51,0.00,CLR,,0.00,WeatherDisplay:10.37,2013-08-06 08:10:00,
2013-08-06 09:20:00,59.9,42.7,29.80,West,267,3.0,9.0,53,0.00,CLR,,0.00,WeatherDisplay:10.37,2013-08-06 08:20:00,
2013-08-06 09:30:00,59.5,43.3,29.81,West,267,2.0,8.0,55,0.00,CLR,,0.00,WeatherDisplay:10.37,2013-08-06 08:30:00,
2013-08-06 09:40:00,59.4,44.1,29.81,WSW,252,7.0,9.0,57,0.00,CLR,,0.00,WeatherDisplay:10.37,2013-08-06 08:40:00,
2013-08-06 09:50:00,59.2,44.4,29.81,WSW,254,3.0,7.0,58,0.00,CLR,,0.00,WeatherDisplay:10.37,2013-08-06 08:50:00,
2013-08-06 10:00:00,58.5,43.7,29.81,West,277,2.0,8.0,58,0.00,CLR,,0.00,WeatherDisplay:10.37,2013-08-06 09:00:00,
2013-08-06 10:10:00,58.5,44.3,29.81,West,261,2.0,7.0,59,0.00,CLR,,0.00,WeatherDisplay:10.37,2013-08-06 09:10:00,
2013-08-06 10:20:00,57.9,44.1,29.81,WNW,284,8.0,10.0,60,0.00,CLR,,0.00,WeatherDisplay:10.37,2013-08-06 09:20:00,
2013-08-06 10:30:00,56.7,43.8,29.81,WNW,291,5.0,10.0,62,0.00,CLR,,0.00,WeatherDisplay:10.37,2013-08-06 09:30:00,
2013-08-06 10:40:00,56.8,44.8,29.81,WNW,287,5.0,9.0,64,0.00,CLR,,0.00,WeatherDisplay:10.37,2013-08-06 09:40:00,
2013-08-06 10:50:00,57.5,45.4,29.81,West,275,5.0,10.0,64,0.00,CLR,,0.00,WeatherDisplay:10.37,2013-08-06 09:50:00,
2013-08-06 11:00:00,58.4,45.4,29.82,West,260,3.0,6.0,62,0.00,CLR,,0.00,WeatherDisplay:10.37,2013-08-06 10:00:00,
2013-08-06 11:10:00,61.2,47.2,29.81,West,270,8.0,10.0,60,0.00,CLR,,0.00,WeatherDisplay:10.37,2013-08-06 10:10:00,
2013-08-06 11:20:00,61.5,45.2,29.82,West,273,2.0,11.0,55,0.00,CLR,,0.00,WeatherDisplay:10.37,2013-08-06 10:20:00,
2013-08-06 11:30:00,63.1,45.2,29.82,WSW,245,3.0,12.0,52,0.00,CLR,,0.00,WeatherDisplay:10.37,2013-08-06 10:30:00,
2013-08-06 11:40:00,63.5,45.0,29.82,West,273,5.0,8.0,51,0.00,CLR,,0.00,WeatherDisplay:10.37,2013-08-06 10:40:00,
2013-08-06 11:50:00,61.7,42.9,29.82,WNW,296,7.0,14.0,50,0.00,CLR,,0.00,WeatherDisplay:10.37,2013-08-06 10:50:00,
2013-08-06 12:00:00,61.0,43.7,29.82,WNW,287,7.0,10.0,53,0.00,CLR,,0.00,WeatherDisplay:10.37,2013-08-06 11:00:00,
2013-08-06 12:10:00,62.4,45.5,29.82,West,267,7.0,11.0,54,0.00,CLR,,0.00,WeatherDisplay:10.37,2013-08-06 11:10:00,
2013-08-06 12:20:00,63.1,44.7,29.82,West,280,6.0,11.0,51,0.00,CLR,,0.00,WeatherDisplay:10.37,2013-08-06 11:20:00,
2013-08-06 12:30:00,62.4,44.0,29.82,WNW,291,3.0,12.0,51,0.00,CLR,,0.00,WeatherDisplay:10.37,2013-08-06 11:30:00,
2013-08-06 12:40:00,63.3,45.9,29.82,WSW,246,2.0,11.0,53,0.00,CLR,,0.00,WeatherDisplay:10.37,2013-08-06 11:40:00,
2013-08-06 12:50:00,65.8,47.1,29.82,WSW,238,7.0,10.0,51,0.00,CLR,,0.00,WeatherDisplay:10.37,2013-08-06 11:50:00,
2013-08-06 13:00:00,67.0,46.6,29.82,WSW,257,6.0,10.0,48,0.00,CLR,,0.00,WeatherDisplay:10.37,2013-08-06 12:00:00,
2013-08-06 13:10:00,67.1,45.0,29.82,WSW,256,3.0,14.0,45,0.00,CLR,,0.00,WeatherDisplay:10.37,2013-08-06 12:10:00,
2013-08-06 13:20:00,66.0,44.6,29.82,WSW,256,3.0,13.0,46,0.00,CLR,,0.00,WeatherDisplay:10.37,2013-08-06 12:20:00,
2013-08-06 13:30:00,65.9,45.1,29.83,WSW,253,7.0,9.0,47,0.00,CLR,,0.00,WeatherDisplay:10.37,2013-08-06 12:30:00,
2013-08-06 13:40:00,64.8,44.7,29.83,WSW,240,3.0,12.0,48,0.00,CLR,,0.00,WeatherDisplay:10.37,2013-08-06 12:40:00,
2013-08-06 13:50:00,66.4,46.1,29.83,WSW,242,7.0,11.0,48,0.00,CLR,,0.00,WeatherDisplay:10.37,2013-08-06 12:50:00,
2013-08-06 14:00:00,68.2,47.7,29.83,West,259,5.0,7.0,48,0.00,CLR,,0.00,WeatherDisplay:10.37,2013-08-06 13:00:00,
2013-08-06 14:10:00,68.2,46.0,29.82,West,271,3.0,10.0,45,0.00,CLR,,0.00,WeatherDisplay:10.37,2013-08-06 13:10:00,
2013-08-06 14:20:00,68.4,46.8,29.82,WSW,241,6.0,12.0,46,0.00,CLR,,0.00,WeatherDisplay:10.37,2013-08-06 13:20:00,
2013-08-06 14:30:00,68.3,46.7,29.82,SW,235,3.0,12.0,46,0.00,CLR,,0.00,WeatherDisplay:10.37,2013-08-06 13:30:00,
2013-08-06 14:40:00,68.0,45.9,29.82,SW,228,6.0,15.0,45,0.00,CLR,,0.00,WeatherDisplay:10.37,2013-08-06 13:40:00,
2013-08-06 14:50:00,65.8,45.6,29.82,WSW,247,3.0,10.0,48,0.00,CLR,,0.00,WeatherDisplay:10.37,2013-08-06 13:50:00,
2013-08-06 15:00:00,65.4,46.3,29.82,WSW,245,5.0,11.0,50,0.00,CLR,,0.00,WeatherDisplay:10.37,2013-08-06 14:00:00,
2013-08-06 15:10:00,67.1,48.4,29.82,SW,232,2.0,8.0,51,0.00,CLR,,0.00,WeatherDisplay:10.37,2013-08-06 14:10:00,
2013-08-06 15:20:00,67.4,47.0,29.82,SW,218,6.0,12.0,48,0.00,CLR,,0.00,WeatherDisplay:10.37,2013-08-06 14:20:00,
2013-08-06 15:30:00,66.9,46.6,29.82,SW,232,2.0,13.0,48,0.00,CLR,,0.00,WeatherDisplay:10.37,2013-08-06 14:30:00,
2013-08-06 15:40:00,66.9,47.7,29.82,WSW,249,5.0,9.0,50,0.00,CLR,,0.00,WeatherDisplay:10.37,2013-08-06 14:40:00,
2013-08-06 15:50:00,65.0,45.9,29.82,WSW,256,6.0,9.0,50,0.00,CLR,,0.00,WeatherDisplay:10.37,2013-08-06 14:50:00,
2013-08-06 16:00:00,63.3,45.4,29.83,WSW,237,3.0,6.0,52,0.00,CLR,,0.00,WeatherDisplay:10.37,2013-08-06 15:00:00,
2013-08-06 16:10:00,62.4,45.0,29.83,West,264,2.0,8.0,53,0.00,CLR,,0.00,WeatherDisplay:10.37,2013-08-06 15:10:00,
2013-08-06 16:20:00,62.4,46.0,29.83,WNW,298,1.0,5.0,55,0.00,CLR,,0.00,WeatherDisplay:10.37,2013-08-06 15:20:00,
2013-08-06 16:30:00,62.8,46.4,29.83,WSW,238,1.0,8.0,55,0.00,CLR,,0.00,WeatherDisplay:10.37,2013-08-06 15:30:00,
2013-08-06 16:40:00,62.8,46.8,29.83,SW,234,1.0,6.0,56,0.00,CLR,,0.00,WeatherDisplay:10.37,2013-08-06 15:40:00,
2013-08-06 16:50:00,63.0,47.0,29.82,WSW,256,1.0,7.0,56,0.00,CLR,,0.00,WeatherDisplay:10.37,2013-08-06 15:50:00,
2013-08-06 17:00:00,63.7,47.7,29.82,WSW,240,2.0,6.0,56,0.00,CLR,,0.00,WeatherDisplay:10.37,2013-08-06 16:00:00,
2013-08-06 17:10:00,64.0,47.5,29.83,WSW,255,2.0,6.0,55,0.00,CLR,,0.00,WeatherDisplay:10.37,2013-08-06 16:10:00,
2013-08-06 17:20:00,64.3,47.3,29.83,WSW,248,2.0,7.0,54,0.00,CLR,,0.00,WeatherDisplay:10.37,2013-08-06 16:20:00,
2013-08-06 17:30:00,64.6,47.6,29.83,West,274,2.0,5.0,54,0.00,CLR,,0.00,WeatherDisplay:10.37,2013-08-06 16:30:00,
2013-08-06 17:40:00,64.4,46.9,29.82,WSW,238,2.0,5.0,53,0.00,CLR,,0.00,WeatherDisplay:10.37,2013-08-06 16:40:00,
2013-08-06 17:50:00,64.8,47.2,29.83,West,281,2.0,6.0,53,0.00,CLR,,0.00,WeatherDisplay:10.37,2013-08-06 16:50:00,
2013-08-06 18:00:00,65.6,48.0,29.82,West,259,0.0,4.0,53,0.00,CLR,,0.00,WeatherDisplay:10.37,2013-08-06 17:00:00,
2013-08-06 18:10:00,64.8,46.2,29.82,West,277,2.0,11.0,51,0.00,CLR,,0.00,WeatherDisplay:10.37,2013-08-06 17:10:00,
2013-08-06 18:20:00,63.7,46.2,29.82,West,280,1.0,3.0,53,0.00,CLR,,0.00,WeatherDisplay:10.37,2013-08-06 17:20:00,
2013-08-06 18:30:00,63.0,46.0,29.82,WSW,257,1.0,4.0,54,0.00,CLR,,0.00,WeatherDisplay:10.37,2013-08-06 17:30:00,
2013-08-06 18:40:00,63.0,46.5,29.82,SSW,208,2.0,6.0,55,0.00,CLR,,0.00,WeatherDisplay:10.37,2013-08-06 17:40:00,
2013-08-06 18:50:00,62.8,46.4,29.82,WNW,295,1.0,4.0,55,0.00,CLR,,0.00,WeatherDisplay:10.37,2013-08-06 17:50:00,
2013-08-06 19:00:00,62.8,46.4,29.82,WNW,297,1.0,4.0,55,0.00,CLR,,0.00,WeatherDisplay:10.37,2013-08-06 18:00:00,
2013-08-06 19:10:00,66.9,49.2,29.82,WNW,294,5.0,7.0,53,0.00,CLR,,0.00,WeatherDisplay:10.37,2013-08-06 18:10:00,
2013-08-06 19:20:00,68.3,47.8,29.81,WNW,298,2.0,6.0,48,0.00,CLR,,0.00,WeatherDisplay:10.37,2013-08-06 18:20:00,
2013-08-06 19:30:00,62.8,43.9,29.82,WNW,299,2.0,6.0,50,0.00,CLR,,0.00,WeatherDisplay:10.37,2013-08-06 18:30:00,
2013-08-06 19:40:00,60.2,43.0,29.82,NW,314,2.0,6.0,53,0.00,CLR,,0.00,WeatherDisplay:10.37,2013-08-06 18:40:00,
2013-08-06 19:50:00,58.6,43.4,29.82,NW,315,1.0,2.0,57,0.00,CLR,,0.00,WeatherDisplay:10.37,2013-08-06 18:50:00,
2013-08-06 20:00:00,57.8,44.5,29.83,NW,318,1.0,3.0,61,0.00,CLR,,0.00,WeatherDisplay:10.37,2013-08-06 19:00:00,
2013-08-06 20:10:00,57.4,44.5,29.83,NW,315,0.0,2.0,62,0.00,CLR,,0.00,WeatherDisplay:10.37,2013-08-06 19:10:00,
2013-08-06 20:20:00,56.8,44.0,29.83,NW,318,1.0,2.0,62,0.00,CLR,,0.00,WeatherDisplay:10.37,2013-08-06 19:20:00,
2013-08-06 20:30:00,56.3,44.3,29.83,WNW,301,1.0,2.0,64,0.00,CLR,,0.00,WeatherDisplay:10.37,2013-08-06 19:30:00,
2013-08-06 20:40:00,56.1,44.9,29.83,WNW,292,0.0,2.0,66,0.00,CLR,,0.00,WeatherDisplay:10.37,2013-08-06 19:40:00,
2013-08-06 20:50:00,55.8,44.6,29.83,WNW,292,0.0,2.0,66,0.00,CLR,,0.00,WeatherDisplay:10.37,2013-08-06 19:50:00,
2013-08-06 21:00:00,55.6,44.8,29.83,WNW,292,0.0,0.0,67,0.00,CLR,,0.00,WeatherDisplay:10.37,2013-08-06 20:00:00,
2013-08-06 21:10:00,55.2,44.8,29.84,WNW,297,1.0,2.0,68,0.00,CLR,,0.00,WeatherDisplay:10.37,2013-08-06 20:10:00,
2013-08-06 21:20:00,54.9,45.3,29.84,NW,315,0.0,2.0,70,0.00,CLR,,0.00,WeatherDisplay:10.37,2013-08-06 20:20:00,
2013-08-06 21:30:00,54.7,45.5,29.84,WNW,296,0.0,3.0,71,0.00,CLR,,0.00,WeatherDisplay:10.37,2013-08-06 20:30:00,
2013-08-06 21:40:00,54.2,45.4,29.84,WNW,292,0.0,1.0,72,0.00,CLR,,0.00,WeatherDisplay:10.37,2013-08-06 20:40:00,
2013-08-06 21:50:00,53.4,44.3,29.84,WNW,292,0.0,2.0,71,0.00,CLR,,0.00,WeatherDisplay:10.37,2013-08-06 20:50:00,
2013-08-06 22:00:00,52.2,43.0,29.84,WNW,292,1.0,2.0,71,0.00,CLR,,0.00,WeatherDisplay:10.37,2013-08-06 21:00:00,
2013-08-06 22:10:00,51.4,42.7,29.84,WNW,292,1.0,2.0,72,0.00,CLR,,0.00,WeatherDisplay:10.37,2013-08-06 21:10:00,
2013-08-06 22:20:00,51.2,43.2,29.85,WNW,292,0.0,2.0,74,0.00,CLR,,0.00,WeatherDisplay:10.37,2013-08-06 21:20:00,
2013-08-06 22:30:00,50.9,43.6,29.84,WNW,292,1.0,3.0,76,0.00,CLR,,0.00,WeatherDisplay:10.37,2013-08-06 21:30:00,
2013-08-06 22:40:00,50.4,43.4,29.85,WNW,292,2.0,2.0,77,0.00,CLR,,0.00,WeatherDisplay:10.37,2013-08-06 21:40:00,
2013-08-06 22:50:00,49.5,42.9,29.85,WNW,292,2.0,3.0,78,0.00,CLR,,0.00,WeatherDisplay:10.37,2013-08-06 21:50:00,
2013-08-06 23:00:00,48.6,42.7,29.85,WNW,295,0.0,3.0,80,0.00,CLR,,0.00,WeatherDisplay:10.37,2013-08-06 22:00:00,
2013-08-06 23:10:00,47.7,41.9,29.85,WNW,292,0.0,2.0,80,0.00,CLR,,0.00,WeatherDisplay:10.37,2013-08-06 22:10:00,
2013-08-06 23:20:00,47.5,42.0,29.85,WNW,292,1.0,4.0,81,0.00,CLR,,0.00,WeatherDisplay:10.37,2013-08-06 22:20:00,
2013-08-06 23:30:00,47.8,42.9,29.85,WNW,284,2.0,3.0,83,0.00,CLR,,0.00,WeatherDisplay:10.37,2013-08-06 22:30:00,
2013-08-06 23:40:00,47.8,42.9,29.85,West,270,1.0,2.0,83,0.00,CLR,,0.00,WeatherDisplay:10.37,2013-08-06 22:40:00,
2013-08-06 23:50:00,47.1,42.5,29.85,West,270,0.0,1.0,84,0.00,CLR,,0.00,WeatherDisplay:10.37,2013-08-06 22:50:00,